createdAt,value
2019-03-03T00:00:23.962Z,38.10
2019-03-03T00:05:29.498Z,35.80
2019-03-03T00:10:35.287Z,42.93
2019-03-03T00:15:41.075Z,42.07
2019-03-03T00:20:46.511Z,39.80
2019-03-03T00:25:52.030Z,44.47
2019-03-03T00:30:57.826Z,50.40
2019-03-03T00:36:03.300Z,47.80
2019-03-03T00:41:13.829Z,49.73
2019-03-03T00:46:40.311Z,46.03
2019-03-03T00:51:50.731Z,48.60
2019-03-03T00:57:00.283Z,46.13
2019-03-03T01:02:10.506Z,49.93
2019-03-03T01:07:30.404Z,48.77
2019-03-03T01:12:41.047Z,48.70
2019-03-03T01:17:51.483Z,45.23
2019-03-03T01:24:00.371Z,46.27
2019-03-03T01:29:06.403Z,42.53
2019-03-03T01:34:11.347Z,46.87
2019-03-03T01:39:16.882Z,46.53
2019-03-03T01:44:22.334Z,49.97
2019-03-03T01:49:27.811Z,55.53
2019-03-03T01:54:33.994Z,48.63
2019-03-03T01:59:39.882Z,49.77
2019-03-03T02:04:45.679Z,49.27
2019-03-03T02:09:51.191Z,53.87
2019-03-03T02:14:56.656Z,46.63
2019-03-03T02:20:02.140Z,49.50
2019-03-03T02:25:08.050Z,46.87
2019-03-03T02:30:16.989Z,54.47
2019-03-03T02:35:22.784Z,46.97
2019-03-03T02:40:28.230Z,46.07
2019-03-03T02:45:33.710Z,45.90
2019-03-03T02:50:39.213Z,51.77
2019-03-03T02:55:45.036Z,52.03
2019-03-03T03:00:56.607Z,46.77
2019-03-03T03:06:06.120Z,56.87
2019-03-03T03:11:17.491Z,50.83
2019-03-03T03:16:30.980Z,53.50
2019-03-03T03:21:42.730Z,59.57
2019-03-03T03:26:58.093Z,59.97
2019-03-03T03:32:15.051Z,52.83
2019-03-03T03:37:24.597Z,48.63
2019-03-03T03:42:34.117Z,53.80
2019-03-03T03:47:58.786Z,54.33
2019-03-03T03:53:08.332Z,58.97
2019-03-03T03:58:19.193Z,53.50
2019-03-03T04:03:34.906Z,55.50
2019-03-03T04:08:45.536Z,59.80
2019-03-03T04:13:56.293Z,58.80
2019-03-03T04:19:05.803Z,57.53
2019-03-03T04:26:19.833Z,57.10
2019-03-03T04:32:30.248Z,57.20
2019-03-03T04:37:47.210Z,61.43
2019-03-03T04:42:57.787Z,53.33
2019-03-03T04:48:09.320Z,55.83
2019-03-03T04:53:18.889Z,54.13
2019-03-03T04:58:29.520Z,54.17
2019-03-03T05:03:43.340Z,52.17
2019-03-03T05:08:55.702Z,60.33
2019-03-03T05:14:05.255Z,55.60
2019-03-03T05:19:22.732Z,52.63
2019-03-03T05:24:34.186Z,49.20
2019-03-03T05:29:33.715Z,47.07
2019-03-03T05:34:39.196Z,49.53
2019-03-03T05:39:44.750Z,53.13
2019-03-03T05:44:50.302Z,49.30
2019-03-03T05:49:55.754Z,45.03
2019-03-03T05:55:01.576Z,41.43
2019-03-03T06:00:07.098Z,43.80
2019-03-03T06:05:12.870Z,40.07
2019-03-03T06:10:18.331Z,43.63
2019-03-03T06:15:24.134Z,42.93
2019-03-03T06:20:29.748Z,38.80
2019-03-03T06:25:35.281Z,37.87
2019-03-03T06:30:41.162Z,37.17
2019-03-03T06:35:46.659Z,34.37
2019-03-03T06:40:52.231Z,28.03
2019-03-03T06:45:57.690Z,24.20
2019-03-03T06:51:03.210Z,30.93
2019-03-03T06:56:08.731Z,25.40
2019-03-03T07:01:14.752Z,23.80
2019-03-03T07:06:20.594Z,21.87
2019-03-03T07:11:26.074Z,20.00
2019-03-03T07:16:31.976Z,15.70
2019-03-03T07:21:37.463Z,17.60
2019-03-03T07:26:43.315Z,15.13
2019-03-03T07:31:49.171Z,17.90
2019-03-03T07:36:54.980Z,12.53
2019-03-03T07:42:00.478Z,11.63
2019-03-03T07:47:06.385Z,14.80
2019-03-03T07:52:12.168Z,11.20
2019-03-03T07:57:17.657Z,14.60
2019-03-03T08:02:23.175Z,14.53
2019-03-03T08:07:28.647Z,17.03
2019-03-03T08:12:34.440Z,12.33
2019-03-03T08:17:39.975Z,9.77
2019-03-03T08:22:45.466Z,13.47
2019-03-03T08:27:51.354Z,11.33
2019-03-03T08:32:56.829Z,12.87
2019-03-03T08:38:02.491Z,12.90
2019-03-03T08:43:20.344Z,12.40
2019-03-03T08:48:30.891Z,11.17
2019-03-03T08:54:40.017Z,9.33
2019-03-03T08:59:53.547Z,15.93
2019-03-03T09:05:24.408Z,15.20
2019-03-03T09:10:35.333Z,15.90
2019-03-03T09:15:47.231Z,12.77
2019-03-03T09:20:58.738Z,17.53
2019-03-03T09:26:11.519Z,15.73
2019-03-03T09:31:22.310Z,15.37
2019-03-03T09:36:32.832Z,11.10
2019-03-03T09:41:46.852Z,15.80
2019-03-03T09:46:58.470Z,9.30
2019-03-03T09:52:10.345Z,13.03
2019-03-03T09:57:21.785Z,12.57
2019-03-03T10:02:46.770Z,10.07
2019-03-03T10:08:11.634Z,9.57
2019-03-03T10:13:22.638Z,9.83
2019-03-03T10:18:32.168Z,18.03
2019-03-03T10:23:43.231Z,12.33
2019-03-03T10:28:58.756Z,17.37
2019-03-03T10:34:09.892Z,13.20
2019-03-03T10:39:22.662Z,10.80
2019-03-03T10:44:33.366Z,12.97
2019-03-03T10:49:44.914Z,11.07
2019-03-03T10:55:01.770Z,12.17
2019-03-03T11:00:48.734Z,10.73
2019-03-03T11:06:03.399Z,11.70
2019-03-03T11:11:14.009Z,12.37
2019-03-03T11:16:38.658Z,13.97
2019-03-03T11:21:48.196Z,15.20
2019-03-03T11:26:58.888Z,9.37
2019-03-03T11:32:09.786Z,8.80
2019-03-03T11:37:22.564Z,14.60
2019-03-03T11:42:36.153Z,11.27
2019-03-03T11:47:51.263Z,12.87
2019-03-03T11:53:18.750Z,9.57
2019-03-03T12:00:31.764Z,13.93
2019-03-03T12:05:42.141Z,19.90
2019-03-03T12:10:54.115Z,9.80
2019-03-03T12:16:05.103Z,13.13
2019-03-03T12:21:16.950Z,9.70
2019-03-03T12:26:58.056Z,12.00
2019-03-03T12:33:11.605Z,12.03
2019-03-03T12:38:29.193Z,15.27
2019-03-03T12:43:41.867Z,15.50
2019-03-03T12:48:51.792Z,14.83
2019-03-03T12:54:06.472Z,14.83
2019-03-03T13:00:18.581Z,13.27
2019-03-03T13:05:36.420Z,14.93
2019-03-03T13:10:46.801Z,12.47
2019-03-03T13:16:01.432Z,14.90
2019-03-03T13:21:13.150Z,12.27
2019-03-03T13:27:22.110Z,10.50
2019-03-03T13:32:31.977Z,13.03
2019-03-03T13:37:42.770Z,12.87
2019-03-03T13:43:04.610Z,13.63
2019-03-03T13:48:10.433Z,16.30
2019-03-03T13:53:16.010Z,8.20
2019-03-03T13:58:21.838Z,10.17
2019-03-03T14:03:27.657Z,13.80
2019-03-03T14:08:33.120Z,16.47
2019-03-03T14:13:38.742Z,10.23
2019-03-03T14:18:44.560Z,18.23
2019-03-03T14:23:50.479Z,11.13
2019-03-03T14:28:56.062Z,12.90
2019-03-03T14:34:02.269Z,14.07
2019-03-03T14:39:08.531Z,11.23
2019-03-03T14:44:14.087Z,13.80
2019-03-03T14:49:19.954Z,7.77
2019-03-03T14:54:25.791Z,13.20
2019-03-03T14:59:31.339Z,13.90
2019-03-03T15:04:37.286Z,10.20
2019-03-03T15:09:42.751Z,11.30
2019-03-03T15:14:48.867Z,20.03
2019-03-03T15:19:54.373Z,12.80
2019-03-03T15:25:00.597Z,13.97
2019-03-03T15:30:06.995Z,9.20
2019-03-03T15:35:12.486Z,16.43
2019-03-03T15:40:19.214Z,14.17
2019-03-03T15:45:25.398Z,13.90
2019-03-03T15:50:30.931Z,16.07
2019-03-03T15:55:36.482Z,14.43
2019-03-03T16:00:42.134Z,17.33
2019-03-03T16:05:47.953Z,14.67
2019-03-03T16:10:53.469Z,13.17
2019-03-03T16:15:59.244Z,14.03
2019-03-03T16:21:04.822Z,16.33
2019-03-03T16:26:10.647Z,12.93
2019-03-03T16:31:22.781Z,11.53
2019-03-03T16:36:28.247Z,17.23
2019-03-03T16:41:34.417Z,15.23
2019-03-03T16:46:40.222Z,14.97
2019-03-03T16:51:46.450Z,19.13
2019-03-03T16:56:51.927Z,17.40
2019-03-03T17:01:57.441Z,19.47
2019-03-03T17:07:03.655Z,16.67
2019-03-03T17:12:09.674Z,14.03
2019-03-03T17:17:15.499Z,17.07
2019-03-03T17:22:21.295Z,20.40
2019-03-03T17:27:26.843Z,17.07
2019-03-03T17:32:32.302Z,28.40
2019-03-03T17:37:38.807Z,17.93
2019-03-03T17:42:44.788Z,18.23
2019-03-03T17:47:50.478Z,17.77
2019-03-03T17:52:56.007Z,17.43
2019-03-03T17:58:01.763Z,24.70
2019-03-03T18:03:07.244Z,16.03
2019-03-03T18:08:13.046Z,18.37
2019-03-03T18:13:18.538Z,19.43
2019-03-03T18:18:24.074Z,11.30
2019-03-03T18:23:29.820Z,14.80
2019-03-03T18:28:35.187Z,13.50
2019-03-03T18:33:42.446Z,19.00
2019-03-03T18:38:48.216Z,15.57
2019-03-03T18:43:53.711Z,12.03
2019-03-03T18:48:59.175Z,14.67
2019-03-03T18:54:04.951Z,14.87
2019-03-03T18:59:11.435Z,16.30
2019-03-03T19:04:16.863Z,11.80
2019-03-03T19:09:22.639Z,19.37
2019-03-03T19:14:28.743Z,12.00
2019-03-03T19:19:33.922Z,15.07
2019-03-03T19:24:39.368Z,14.03
2019-03-03T19:29:45.172Z,14.23
2019-03-03T19:34:50.655Z,12.90
2019-03-03T19:39:56.445Z,14.87
2019-03-03T19:45:01.920Z,12.43
2019-03-03T19:50:09.670Z,14.87
2019-03-03T19:55:15.414Z,13.93
2019-03-03T20:00:35.076Z,14.83
2019-03-03T20:05:31.839Z,11.47
2019-03-03T20:10:37.333Z,13.80
2019-03-03T20:15:43.134Z,9.90
2019-03-03T20:20:49.454Z,13.03
2019-03-03T20:25:55.413Z,13.67
2019-03-03T20:31:01.281Z,11.10
2019-03-03T20:36:07.504Z,12.00
2019-03-03T20:41:13.059Z,10.07
2019-03-03T20:46:20.091Z,8.67
2019-03-03T20:51:24.000Z,10.60
2019-03-03T20:56:29.554Z,15.13
2019-03-03T21:01:35.335Z,13.23
2019-03-03T21:06:40.814Z,9.13
2019-03-03T21:11:46.245Z,16.37
2019-03-03T21:16:51.742Z,11.00
2019-03-03T21:21:57.181Z,15.67
2019-03-03T21:27:02.939Z,13.13
2019-03-03T21:32:08.474Z,13.30
2019-03-03T21:37:14.071Z,14.50
2019-03-03T21:42:19.538Z,12.80
2019-03-03T21:47:25.057Z,11.57
2019-03-03T21:52:30.883Z,11.37
2019-03-03T21:57:37.087Z,13.23
2019-03-03T22:02:42.546Z,8.50
2019-03-03T22:07:48.687Z,6.20
2019-03-03T22:12:54.180Z,8.60
2019-03-03T22:17:59.684Z,10.20
2019-03-03T22:23:05.479Z,10.37
2019-03-03T22:28:11.218Z,8.97
2019-03-03T22:33:17.073Z,10.80
2019-03-03T22:38:22.543Z,9.80
2019-03-03T22:43:27.961Z,8.70
2019-03-03T22:48:33.765Z,12.60
2019-03-03T22:53:39.554Z,11.80
2019-03-03T22:58:44.973Z,8.13
2019-03-03T23:04:14.711Z,9.87
2019-03-03T23:10:23.861Z,11.70
2019-03-03T23:15:43.314Z,14.70
2019-03-03T23:21:03.321Z,16.50
2019-03-03T23:26:16.278Z,7.57
2019-03-03T23:31:14.568Z,9.10
2019-03-03T23:36:19.974Z,9.60
2019-03-03T23:41:25.390Z,13.97
2019-03-03T23:46:30.851Z,12.80
2019-03-03T23:51:36.295Z,5.80
2019-03-03T23:56:41.735Z,6.60
